Time;durP1;ratioP1;P1;durP2;ratioP2;P2;SDS_P1;SDS_P2;PMS_P1;PMS_P2;Temp;Humidity;BMP_temperature;BMP_pressure;BME280_temperature;BME280_humidity;BME280_pressure;Samples;Min_cycle;Max_cycle;Signal;HPM_P1;HPM_P2
2021/06/15 00:01:49;;;;;;;8.32;5.50;;;15.50;99.90;;;;;;5034082;28;20505;-73
2021/06/15 00:04:15;;;;;;;7.07;5.25;;;15.50;99.90;;;;;;5026440;28;20414;-73
2021/06/15 00:06:40;;;;;;;8.20;5.85;;;15.50;99.90;;;;;;5044999;28;20021;-73
2021/06/15 00:09:06;;;;;;;7.10;5.28;;;15.50;99.90;;;;;;5044480;28;20036;-73
2021/06/15 00:11:32;;;;;;;9.30;5.78;;;15.30;99.90;;;;;;5044691;28;20024;-73
2021/06/15 00:13:57;;;;;;;7.50;5.32;;;15.20;99.90;;;;;;5043455;28;20373;-73
2021/06/15 00:16:23;;;;;;;8.35;6.32;;;15.20;99.90;;;;;;5026610;28;20021;-72
2021/06/15 00:18:48;;;;;;;8.05;5.72;;;15.00;99.90;;;;;;5024448;28;20025;-73
2021/06/15 00:21:14;;;;;;;9.32;6.43;;;14.90;99.90;;;;;;5048039;28;20025;-73
2021/06/15 00:23:40;;;;;;;9.57;7.03;;;14.60;99.90;;;;;;5041014;28;20030;-73
2021/06/15 00:26:05;;;;;;;8.02;6.63;;;14.00;99.90;;;;;;5052581;28;20070;-73
2021/06/15 00:28:31;;;;;;;8.80;6.50;;;14.30;99.90;;;;;;5045934;28;20439;-73
2021/06/15 00:30:56;;;;;;;10.60;6.15;;;14.90;99.90;;;;;;5047764;28;20115;-73
2021/06/15 00:33:22;;;;;;;8.60;5.40;;;14.80;99.90;;;;;;5028663;28;20100;-73
2021/06/15 00:35:47;;;;;;;8.98;7.00;;;14.80;99.90;;;;;;5043411;28;20052;-73
2021/06/15 00:38:13;;;;;;;9.55;6.80;;;14.80;99.90;;;;;;5045026;28;20048;-73
2021/06/15 00:40:38;;;;;;;11.02;7.70;;;14.30;99.90;;;;;;5040066;28;20032;-73
2021/06/15 00:43:04;;;;;;;12.40;7.65;;;13.90;99.90;;;;;;5041019;28;20079;-73
2021/06/15 00:45:33;;;;;;;12.18;8.23;;;13.60;99.90;;;;;;5047262;28;20099;-73
2021/06/15 00:47:59;;;;;;;8.93;6.85;;;13.50;99.90;;;;;;5034147;28;20032;-73
2021/06/15 00:50:26;;;;;;;7.28;6.25;;;13.90;99.90;;;;;;5037976;28;20416;-73
2021/06/15 00:52:53;;;;;;;9.88;6.50;;;14.20;99.90;;;;;;5041850;28;20102;-73
2021/06/15 00:55:23;;;;;;;8.65;6.10;;;14.30;99.90;;;;;;5044046;28;20009;-73
2021/06/15 00:57:49;;;;;;;8.30;6.40;;;14.30;99.90;;;;;;5043893;28;20033;-73
2021/06/15 01:00:15;;;;;;;6.50;5.72;;;14.30;99.90;;;;;;5030962;28;20017;-74
2021/06/15 01:02:41;;;;;;;6.43;5.32;;;14.50;99.90;;;;;;5043720;28;20021;-74
2021/06/15 01:05:09;;;;;;;8.30;5.60;;;14.70;99.90;;;;;;5024263;28;20029;-74
2021/06/15 01:07:47;;;;;;;8.38;5.57;;;14.70;99.90;;;;;;5040129;28;20484;-74
2021/06/15 01:10:35;;;;;;;8.80;6.10;;;14.70;99.90;;;;;;5041059;28;20024;-74
2021/06/15 01:13:11;;;;;;;7.15;5.80;;;14.50;99.90;;;;;;5048533;28;20056;-73
2021/06/15 01:16:10;;;;;;;7.88;5.82;;;14.50;99.90;;;;;;5040351;28;20025;-74
2021/06/15 01:18:41;;;;;;;7.85;6.07;;;14.50;99.90;;;;;;5026694;28;20061;-75
2021/06/15 01:21:11;;;;;;;7.88;5.63;;;14.60;99.90;;;;;;5017565;28;20432;-74
2021/06/15 01:23:48;;;;;;;7.72;6.10;;;14.60;99.90;;;;;;5043587;28;20021;-74
2021/06/15 01:26:32;;;;;;;8.30;6.22;;;14.60;99.90;;;;;;5028676;28;20056;-73
2021/06/15 01:29:12;;;;;;;10.13;6.35;;;14.50;99.90;;;;;;5043763;28;20029;-74
2021/06/15 01:31:51;;;;;;;9.90;6.80;;;14.70;99.90;;;;;;5041774;28;20017;-74
2021/06/15 01:34:21;;;;;;;9.27;7.10;;;14.60;99.90;;;;;;5037962;28;20055;-73
2021/06/15 01:37:08;;;;;;;9.80;6.47;;;14.90;99.90;;;;;;5037679;28;20033;-74
2021/06/15 01:39:41;;;;;;;8.45;6.60;;;14.80;99.90;;;;;;5044553;28;20025;-74
2021/06/15 01:42:30;;;;;;;12.00;7.15;;;14.60;99.90;;;;;;5033943;28;20071;-74
2021/06/15 01:45:09;;;;;;;10.40;6.95;;;14.90;99.90;;;;;;5023502;28;20033;-74
2021/06/15 01:47:38;;;;;;;9.35;6.97;;;14.90;99.90;;;;;;5025318;28;20020;-74
2021/06/15 01:50:07;;;;;;;7.40;6.15;;;14.90;99.90;;;;;;5042980;28;20021;-74
2021/06/15 01:52:38;;;;;;;10.30;6.28;;;15.00;99.90;;;;;;5026088;28;20030;-74
2021/06/15 01:55:07;;;;;;;7.85;6.10;;;14.90;99.90;;;;;;5042738;28;20028;-75
2021/06/15 01:57:33;;;;;;;10.68;6.40;;;15.00;99.90;;;;;;5026666;28;20104;-74
2021/06/15 02:00:07;;;;;;;9.38;6.78;;;15.00;99.90;;;;;;5038539;28;20030;-74
2021/06/15 02:02:34;;;;;;;10.38;5.82;;;15.00;99.90;;;;;;5044234;28;20029;-74
2021/06/15 02:04:59;;;;;;;10.25;6.97;;;15.00;99.90;;;;;;5047780;28;20036;-74
2021/06/15 02:07:31;;;;;;;10.00;6.25;;;14.90;99.90;;;;;;5039629;28;20025;-73
2021/06/15 02:10:06;;;;;;;8.23;5.55;;;14.80;99.90;;;;;;5025783;28;20491;-74
2021/06/15 02:12:32;;;;;;;11.07;7.30;;;14.90;99.90;;;;;;5023936;28;20028;-73
2021/06/15 02:14:59;;;;;;;8.90;6.40;;;14.70;99.90;;;;;;5040520;28;20542;-73
2021/06/15 02:17:26;;;;;;;10.15;6.30;;;14.60;99.90;;;;;;5026020;28;20033;-73
2021/06/15 02:19:53;;;;;;;8.60;6.55;;;14.60;99.90;;;;;;5027432;28;20025;-74
2021/06/15 02:22:21;;;;;;;7.20;5.93;;;14.40;99.90;;;;;;5048484;28;20082;-73
2021/06/15 02:24:53;;;;;;;9.07;6.78;;;14.50;99.90;;;;;;5046672;28;20111;-74
2021/06/15 02:27:21;;;;;;;7.18;6.07;;;14.50;99.90;;;;;;5046761;28;20070;-73
2021/06/15 02:29:47;;;;;;;6.45;5.68;;;14.50;99.90;;;;;;5026917;28;20071;-73
2021/06/15 02:32:15;;;;;;;9.38;6.18;;;14.40;99.90;;;;;;5046368;28;20028;-75
2021/06/15 02:34:46;;;;;;;9.30;6.82;;;14.50;99.90;;;;;;5046471;28;20025;-75
2021/06/15 02:37:16;;;;;;;10.18;6.53;;;14.60;99.90;;;;;;5039981;28;20021;-74
2021/06/15 02:39:42;;;;;;;8.07;6.10;;;14.60;99.90;;;;;;5028576;28;20019;-74
2021/06/15 02:42:13;;;;;;;11.10;6.28;;;14.50;99.90;;;;;;5046539;28;20024;-74
2021/06/15 02:44:42;;;;;;;9.20;6.38;;;14.40;99.90;;;;;;5046812;28;20017;-73
2021/06/15 02:47:08;;;;;;;8.23;6.22;;;14.50;99.90;;;;;;5035052;28;20067;-75
2021/06/15 02:49:41;;;;;;;10.10;7.10;;;14.40;99.90;;;;;;5024850;28;20052;-74
2021/06/15 02:52:20;;;;;;;10.15;6.72;;;14.30;99.90;;;;;;5044290;28;20104;-73
2021/06/15 02:55:02;;;;;;;10.68;7.35;;;14.00;99.90;;;;;;5040445;28;20365;-73
2021/06/15 02:57:29;;;;;;;11.60;7.25;;;13.60;99.90;;;;;;5048296;28;20017;-73
2021/06/15 02:59:55;;;;;;;11.07;7.85;;;13.10;99.90;;;;;;5050854;28;20072;-73
2021/06/15 03:02:22;;;;;;;8.25;7.13;;;13.20;99.90;;;;;;5038452;28;20025;-75
2021/06/15 03:04:48;;;;;;;11.27;8.20;;;13.30;99.90;;;;;;5054371;28;20386;-76
2021/06/15 03:07:14;;;;;;;10.13;8.02;;;13.30;99.90;;;;;;5019430;28;20025;-74
2021/06/15 03:09:40;;;;;;;11.57;8.10;;;13.50;99.90;;;;;;5027126;28;20025;-75
2021/06/15 03:12:12;;;;;;;13.40;8.15;;;13.30;99.90;;;;;;5040965;28;20027;-74
2021/06/15 03:14:42;;;;;;;15.38;7.32;;;13.30;99.90;;;;;;5042642;28;20122;-75
2021/06/15 03:17:10;;;;;;;7.78;6.97;;;13.30;99.90;;;;;;5047655;28;20023;-76
2021/06/15 03:19:56;;;;;;;12.75;7.40;;;13.30;99.90;;;;;;5046386;28;20021;-75
2021/06/15 03:22:26;;;;;;;12.88;8.30;;;13.20;99.90;;;;;;5036505;28;20122;-75
2021/06/15 03:25:04;;;;;;;10.73;7.50;;;13.20;99.90;;;;;;5021002;28;20065;-76
2021/06/15 03:27:51;;;;;;;8.05;6.90;;;13.30;99.90;;;;;;5026924;28;20032;-75
2021/06/15 03:30:17;;;;;;;9.10;7.43;;;13.10;99.90;;;;;;5026409;28;20025;-76
2021/06/15 03:32:52;;;;;;;8.00;6.93;;;13.20;99.90;;;;;;5053844;28;20028;-75
2021/06/15 03:35:18;;;;;;;8.38;6.78;;;13.30;99.90;;;;;;5014285;28;20384;-75
2021/06/15 03:37:51;;;;;;;8.93;7.10;;;13.40;99.90;;;;;;5023998;28;20025;-75
2021/06/15 03:40:21;;;;;;;8.00;7.13;;;13.40;99.90;;;;;;5042601;28;20494;-75
2021/06/15 03:42:49;;;;;;;10.35;7.35;;;13.20;99.90;;;;;;5040315;28;20087;-76
2021/06/15 03:45:14;;;;;;;14.10;7.50;;;13.20;99.90;;;;;;5044040;28;20499;-75
2021/06/15 03:47:43;;;;;;;8.85;6.85;;;13.50;99.90;;;;;;5047009;28;20095;-74
2021/06/15 03:50:10;;;;;;;10.60;6.95;;;13.60;99.90;;;;;;5033565;28;20430;-74
2021/06/15 03:52:40;;;;;;;10.00;6.88;;;13.80;99.90;;;;;;5036964;28;20113;-73
2021/06/15 03:55:09;;;;;;;11.98;7.00;;;13.70;99.90;;;;;;5043075;28;20032;-74
2021/06/15 03:57:43;;;;;;;9.50;6.82;;;13.70;99.90;;;;;;5046928;28;20036;-75
2021/06/15 04:00:12;;;;;;;9.55;6.68;;;13.80;99.90;;;;;;5027530;28;20061;-74
2021/06/15 04:02:39;;;;;;;10.63;6.43;;;13.90;99.90;;;;;;5029674;28;20025;-74
2021/06/15 04:05:06;;;;;;;13.27;7.53;;;13.80;99.90;;;;;;5045793;28;20036;-74
2021/06/15 04:07:33;;;;;;;10.20;7.78;;;13.90;99.90;;;;;;5039994;28;20017;-75
2021/06/15 04:10:00;;;;;;;11.52;8.30;;;13.40;99.90;;;;;;5022615;28;20064;-74
2021/06/15 04:12:26;;;;;;;10.55;8.18;;;13.00;99.90;;;;;;5046415;28;20056;-73
2021/06/15 04:14:53;;;;;;;13.68;9.05;;;13.00;99.90;;;;;;5033072;28;20033;-73
2021/06/15 04:17:25;;;;;;;13.55;8.98;;;12.70;99.90;;;;;;5046634;28;20026;-73
2021/06/15 04:19:55;;;;;;;12.05;8.98;;;12.70;99.90;;;;;;5033459;28;20451;-74
2021/06/15 04:22:23;;;;;;;11.18;8.35;;;13.00;99.90;;;;;;5045798;28;20037;-74
2021/06/15 04:24:53;;;;;;;11.30;8.75;;;13.40;99.90;;;;;;5046423;28;20032;-75
2021/06/15 04:27:21;;;;;;;12.02;9.02;;;13.60;99.90;;;;;;5033063;28;20021;-75
2021/06/15 04:29:48;;;;;;;11.65;9.43;;;13.50;99.90;;;;;;5028464;28;20035;-76
2021/06/15 04:32:18;;;;;;;12.45;8.98;;;13.20;99.90;;;;;;5041183;28;20039;-75
2021/06/15 04:34:51;;;;;;;12.30;9.02;;;13.20;99.90;;;;;;5021484;28;20021;-75
2021/06/15 04:37:19;;;;;;;12.50;9.52;;;13.20;99.90;;;;;;5035076;28;20505;-76
2021/06/15 04:40:02;;;;;;;12.07;9.23;;;13.20;99.90;;;;;;5014950;28;20121;-77
2021/06/15 04:42:43;;;;;;;11.05;9.50;;;13.40;99.90;;;;;;5040899;28;20059;-74
2021/06/15 04:45:10;;;;;;;11.23;8.70;;;13.80;99.90;;;;;;5023600;28;20024;-74
2021/06/15 04:47:43;;;;;;;11.40;8.85;;;13.90;99.90;;;;;;5038011;28;20041;-72
2021/06/15 04:50:24;;;;;;;10.35;9.13;;;14.10;99.90;;;;;;5051952;28;20107;-72
2021/06/15 04:52:50;;;;;;;9.68;8.10;;;14.40;99.90;;;;;;5038909;28;20029;-74
2021/06/15 04:55:19;;;;;;;12.00;8.73;;;14.60;99.90;;;;;;5041141;28;20028;-73
2021/06/15 04:57:47;;;;;;;13.73;9.32;;;14.80;99.90;;;;;;5032400;28;20084;-72
2021/06/15 05:00:13;;;;;;;9.75;7.70;;;15.00;99.90;;;;;;5022261;28;20021;-75
2021/06/15 05:02:40;;;;;;;11.23;8.35;;;15.20;99.90;;;;;;5045554;28;20033;-74
2021/06/15 05:05:08;;;;;;;8.32;7.28;;;15.30;99.90;;;;;;5032223;28;20428;-74
2021/06/15 05:07:35;;;;;;;13.93;7.95;;;15.30;99.90;;;;;;5032119;28;20064;-74
2021/06/15 05:10:06;;;;;;;14.57;7.18;;;15.30;99.90;;;;;;5026627;28;20574;-75
2021/06/15 05:12:38;;;;;;;8.20;7.38;;;15.40;99.90;;;;;;5032095;28;20021;-74
2021/06/15 05:15:05;;;;;;;10.20;7.63;;;15.40;99.90;;;;;;5032010;28;20053;-75
2021/06/15 05:17:31;;;;;;;13.45;7.25;;;15.40;99.90;;;;;;5039619;28;20029;-76
2021/06/15 05:19:57;;;;;;;9.23;7.35;;;15.50;99.90;;;;;;5038681;28;20025;-77
2021/06/15 05:22:25;;;;;;;9.90;7.22;;;15.50;99.90;;;;;;5026893;28;20506;-77
2021/06/15 05:24:52;;;;;;;11.73;7.95;;;15.80;99.90;;;;;;5031858;28;20025;-72
2021/06/15 05:27:20;;;;;;;10.20;7.40;;;15.90;99.90;;;;;;5040038;28;20039;-73
2021/06/15 05:29:46;;;;;;;8.90;6.75;;;15.90;99.90;;;;;;5049569;28;20108;-73
2021/06/15 05:32:11;;;;;;;8.75;7.28;;;15.90;99.90;;;;;;5031859;28;20112;-73
2021/06/15 05:34:38;;;;;;;10.25;7.65;;;16.00;99.90;;;;;;5025611;28;20031;-73
2021/06/15 05:37:05;;;;;;;9.65;7.30;;;16.10;99.90;;;;;;5031824;28;20104;-73
2021/06/15 05:39:32;;;;;;;9.38;7.28;;;16.30;99.90;;;;;;5025402;28;20021;-70
2021/06/15 05:41:58;;;;;;;9.80;7.68;;;16.30;99.90;;;;;;5031649;28;20030;-71
2021/06/15 05:44:23;;;;;;;10.15;7.35;;;16.20;99.90;;;;;;5031571;28;20036;-74
2021/06/15 05:46:49;;;;;;;8.52;7.20;;;16.30;99.90;;;;;;5031838;28;20022;-75
2021/06/15 05:49:14;;;;;;;8.10;6.93;;;16.40;99.90;;;;;;5018104;28;20108;-75
2021/06/15 05:51:40;;;;;;;10.00;7.63;;;16.30;99.90;;;;;;5031613;28;20403;-74
2021/06/15 05:54:06;;;;;;;8.45;7.50;;;16.30;99.90;;;;;;5034359;28;20024;-75
2021/06/15 05:56:32;;;;;;;8.65;7.25;;;16.50;99.90;;;;;;5044472;28;20483;-73
2021/06/15 05:58:58;;;;;;;11.25;6.95;;;16.50;99.90;;;;;;5040144;28;20503;-73
2021/06/15 06:01:27;;;;;;;9.43;7.25;;;16.70;99.90;;;;;;5027010;28;20029;-73
2021/06/15 06:04:03;;;;;;;9.50;6.75;;;16.90;99.90;;;;;;5042169;28;20025;-73
2021/06/15 06:09:14;;;;;;;9.23;6.93;;;17.30;99.90;;;;;;5042419;28;20056;-73
2021/06/15 06:11:40;;;;;;;8.25;6.07;;;17.40;99.90;;;;;;5024192;28;20487;-73
2021/06/15 06:14:06;;;;;;;7.55;6.75;;;17.40;99.90;;;;;;5024278;28;20025;-73
2021/06/15 06:16:33;;;;;;;8.35;6.63;;;17.50;99.90;;;;;;5042072;28;20032;-73
2021/06/15 06:18:59;;;;;;;11.40;7.07;;;17.70;99.90;;;;;;5030448;28;20025;-73
2021/06/15 06:21:27;;;;;;;9.10;6.85;;;17.80;99.90;;;;;;5048644;28;20024;-73
2021/06/15 06:23:53;;;;;;;8.52;6.78;;;18.00;99.90;;;;;;5042492;28;20119;-73
2021/06/15 06:26:19;;;;;;;10.50;6.68;;;17.90;99.90;;;;;;5041725;28;20065;-73
2021/06/15 06:28:44;;;;;;;9.50;6.53;;;18.10;99.90;;;;;;5047703;28;20037;-74
2021/06/15 06:31:10;;;;;;;8.02;6.60;;;18.10;99.90;;;;;;5048220;28;20035;-73
2021/06/15 06:33:35;;;;;;;9.52;6.82;;;18.20;99.90;;;;;;5042407;28;20032;-73
2021/06/15 06:36:01;;;;;;;9.38;6.40;;;18.20;99.90;;;;;;5041455;28;20021;-73
2021/06/15 06:38:26;;;;;;;9.95;7.00;;;18.30;99.90;;;;;;5054796;28;20105;-73
2021/06/15 06:40:52;;;;;;;8.70;6.55;;;18.40;99.90;;;;;;5040624;28;20064;-73
2021/06/15 06:43:17;;;;;;;7.00;6.30;;;18.40;99.90;;;;;;5034848;28;20076;-73
2021/06/15 06:45:43;;;;;;;8.43;6.97;;;18.50;99.90;;;;;;5026617;28;20024;-74
2021/06/15 06:48:09;;;;;;;8.57;6.55;;;18.70;99.90;;;;;;5034751;28;20017;-73
2021/06/15 06:50:35;;;;;;;10.02;6.65;;;18.80;99.90;;;;;;5047751;28;20394;-73
2021/06/15 06:53:01;;;;;;;9.30;6.80;;;18.80;99.90;;;;;;5034898;28;20029;-73
2021/06/15 06:55:28;;;;;;;10.18;7.35;;;18.80;99.90;;;;;;5047937;28;20388;-74
2021/06/15 06:57:55;;;;;;;10.18;7.10;;;18.80;99.90;;;;;;5047769;28;20028;-73
2021/06/15 07:00:21;;;;;;;8.85;7.03;;;19.00;99.90;;;;;;5048372;28;20017;-72
2021/06/15 07:02:48;;;;;;;8.82;6.57;;;19.00;99.90;;;;;;5048003;28;20040;-72
2021/06/15 07:05:14;;;;;;;9.15;6.93;;;19.30;99.90;;;;;;5047369;28;20025;-72
2021/06/15 07:07:40;;;;;;;9.05;6.78;;;19.30;99.90;;;;;;5003543;28;20026;-72
2021/06/15 07:10:06;;;;;;;7.28;6.53;;;19.40;99.90;;;;;;5047446;28;20438;-72
2021/06/15 07:12:32;;;;;;;6.63;5.93;;;19.50;99.90;;;;;;5034380;28;20506;-73
2021/06/15 07:14:57;;;;;;;8.40;6.20;;;19.60;99.90;;;;;;5023213;28;20033;-73
2021/06/15 07:17:23;;;;;;;6.68;5.55;;;19.70;99.90;;;;;;5020182;28;20113;-73
2021/06/15 07:19:48;;;;;;;8.73;6.32;;;19.80;99.90;;;;;;5023039;28;20022;-73
2021/06/15 07:22:14;;;;;;;7.57;5.65;;;19.80;99.90;;;;;;5027799;28;20483;-72
2021/06/15 07:24:40;;;;;;;8.43;6.85;;;19.80;99.90;;;;;;5040467;28;20061;-73
2021/06/15 07:27:06;;;;;;;10.05;7.07;;;20.00;99.90;;;;;;5027656;28;20103;-73
2021/06/15 07:29:31;;;;;;;9.20;6.38;;;19.90;99.90;;;;;;5022448;28;20550;-72
2021/06/15 07:31:57;;;;;;;8.90;6.72;;;20.20;99.90;;;;;;5033961;28;20506;-73
2021/06/15 07:34:22;;;;;;;12.55;7.10;;;20.30;99.90;;;;;;5047177;28;20028;-72
2021/06/15 07:36:48;;;;;;;11.05;7.00;;;20.40;99.90;;;;;;5029300;28;20400;-72
2021/06/15 07:39:14;;;;;;;7.07;5.95;;;20.50;99.90;;;;;;5047210;28;20112;-73
2021/06/15 07:41:39;;;;;;;7.72;6.93;;;20.50;99.90;;;;;;5046973;28;20104;-72
2021/06/15 07:44:06;;;;;;;8.02;6.50;;;20.50;99.90;;;;;;5033777;28;20037;-72
2021/06/15 07:46:32;;;;;;;8.82;6.20;;;20.70;99.90;;;;;;5020965;28;20491;-70
2021/06/15 07:48:57;;;;;;;10.63;7.30;;;20.90;99.90;;;;;;5033738;28;20199;-73
2021/06/15 07:51:23;;;;;;;8.60;6.18;;;21.10;99.90;;;;;;5033839;28;20032;-73
2021/06/15 07:53:49;;;;;;;8.75;6.40;;;21.20;99.90;;;;;;5033339;28;20026;-73
2021/06/15 07:56:15;;;;;;;7.70;5.65;;;21.30;99.90;;;;;;5025456;28;20028;-73
2021/06/15 07:58:40;;;;;;;8.23;6.07;;;21.50;99.90;;;;;;5039430;28;20033;-73
2021/06/15 08:01:06;;;;;;;7.90;5.90;;;21.60;99.90;;;;;;5034467;28;20025;-73
2021/06/15 08:03:32;;;;;;;11.90;6.45;;;21.50;99.90;;;;;;5040285;28;20057;-73
2021/06/15 08:05:57;;;;;;;9.77;5.93;;;21.50;99.90;;;;;;5046617;28;20511;-73
2021/06/15 08:08:23;;;;;;;7.82;5.45;;;21.60;99.90;;;;;;5045948;28;20032;-73
2021/06/15 08:10:48;;;;;;;8.77;6.28;;;21.80;99.90;;;;;;5039284;28;20036;-73
2021/06/15 08:13:14;;;;;;;6.75;5.22;;;22.00;99.90;;;;;;5052939;28;20017;-73
2021/06/15 08:15:39;;;;;;;6.22;5.18;;;22.20;99.90;;;;;;5021129;28;20051;-73
2021/06/15 08:18:05;;;;;;;7.28;5.45;;;22.40;99.90;;;;;;5040805;28;20028;-72
2021/06/15 08:20:31;;;;;;;9.15;5.53;;;22.50;99.90;;;;;;5033848;28;20412;-72
2021/06/15 08:22:56;;;;;;;5.95;5.18;;;22.50;99.90;;;;;;5040684;28;20037;-73
2021/06/15 08:25:22;;;;;;;7.65;5.13;;;22.50;99.90;;;;;;5046061;28;20454;-72
2021/06/15 08:27:48;;;;;;;8.32;6.20;;;22.60;99.90;;;;;;5015007;28;20070;-73
2021/06/15 08:30:15;;;;;;;6.72;5.43;;;22.80;99.90;;;;;;5046226;28;20053;-73
2021/06/15 08:32:40;;;;;;;7.78;5.35;;;23.00;99.90;;;;;;5032693;28;20025;-73
2021/06/15 08:35:08;;;;;;;8.43;5.63;;;23.20;99.90;;;;;;5031748;28;20021;-73
2021/06/15 08:37:35;;;;;;;5.80;4.60;;;23.20;99.90;;;;;;5032610;28;20105;-73
2021/06/15 08:40:00;;;;;;;6.20;5.18;;;23.20;99.90;;;;;;5032265;28;20528;-73
2021/06/15 08:42:26;;;;;;;8.13;5.18;;;23.20;99.90;;;;;;5014942;28;20025;-73
2021/06/15 08:44:52;;;;;;;5.43;4.32;;;23.30;99.90;;;;;;5032397;28;20039;-73
2021/06/15 08:47:18;;;;;;;6.18;4.47;;;23.40;99.90;;;;;;5044965;28;20028;-73
2021/06/15 08:49:44;;;;;;;5.82;4.57;;;23.50;99.90;;;;;;5045867;28;20029;-73
2021/06/15 08:52:10;;;;;;;9.60;5.10;;;23.50;99.90;;;;;;5032404;28;20029;-73
2021/06/15 08:54:38;;;;;;;7.82;4.80;;;23.60;99.90;;;;;;5032227;28;20458;-73
2021/06/15 08:57:04;;;;;;;7.10;4.50;;;23.90;99.90;;;;;;5032390;28;20036;-73
2021/06/15 08:59:29;;;;;;;6.15;4.65;;;24.00;99.90;;;;;;5014314;28;20112;-73
2021/06/15 09:02:05;;;;;;;7.30;4.72;;;24.00;99.90;;;;;;5032181;28;20067;-73
2021/06/15 09:04:32;;;;;;;8.27;4.68;;;24.20;99.90;;;;;;5032187;28;20021;-73
2021/06/15 09:06:58;;;;;;;6.22;4.50;;;24.30;99.90;;;;;;5032011;28;20480;-73
2021/06/15 09:09:43;;;;;;;4.72;3.90;;;24.30;99.90;;;;;;5032312;28;20479;-73
2021/06/15 09:12:11;;;;;;;6.60;4.78;;;24.30;99.90;;;;;;5031869;28;20072;-73
2021/06/15 09:14:45;;;;;;;7.93;5.10;;;24.20;99.90;;;;;;5031788;28;20495;-73
2021/06/15 09:17:18;;;;;;;6.28;4.63;;;24.30;99.90;;;;;;5031962;28;20099;-74
2021/06/15 09:19:44;;;;;;;8.85;5.00;;;24.40;99.90;;;;;;5031729;28;20017;-74
2021/06/15 09:22:32;;;;;;;7.45;4.47;;;24.30;99.90;;;;;;5014598;28;20059;-74
2021/06/15 09:24:58;;;;;;;7.05;4.28;;;24.20;99.90;;;;;;5031692;28;20029;-73
2021/06/15 09:27:34;;;;;;;8.27;4.15;;;24.20;99.90;;;;;;5041159;28;20029;-74
2021/06/15 09:30:03;;;;;;;5.97;4.68;;;24.30;99.90;;;;;;5033525;28;20035;-74
2021/06/15 09:32:36;;;;;;;6.97;4.78;;;24.70;99.90;;;;;;5051502;28;20041;-74
2021/06/15 09:35:08;;;;;;;11.10;4.88;;;24.90;99.90;;;;;;5051514;28;20025;-74
2021/06/15 09:37:44;;;;;;;7.50;4.80;;;25.00;99.90;;;;;;5038976;28;20128;-73
2021/06/15 09:40:32;;;;;;;5.90;4.55;;;24.80;99.90;;;;;;5019593;28;20017;-73
2021/06/15 09:43:11;;;;;;;7.78;5.30;;;24.90;99.90;;;;;;5044479;28;20114;-73
2021/06/15 09:45:44;;;;;;;7.60;5.38;;;25.10;99.90;;;;;;5031585;28;20017;-73
2021/06/15 09:48:29;;;;;;;9.30;6.07;;;24.90;99.90;;;;;;5038441;28;20036;-75
2021/06/15 09:51:08;;;;;;;11.10;7.15;;;24.90;99.90;;;;;;5017651;28;20203;-73
2021/06/15 09:53:36;;;;;;;6.80;6.10;;;25.00;99.90;;;;;;5011502;28;20018;-73
2021/06/15 09:56:04;;;;;;;11.95;5.65;;;25.50;99.90;;;;;;5043397;28;20056;-73
2021/06/15 09:58:51;;;;;;;7.10;5.00;;;25.40;99.90;;;;;;5031630;28;20068;-73
2021/06/15 10:01:22;;;;;;;10.50;5.28;;;25.10;99.90;;;;;;5019458;28;20026;-73
2021/06/15 10:04:15;;;;;;;4.93;4.53;;;25.30;99.90;;;;;;5044981;28;20023;-73
2021/06/15 10:06:52;;;;;;;7.22;4.85;;;25.40;99.90;;;;;;5026181;28;20033;-73
2021/06/15 10:09:35;;;;;;;7.05;4.78;;;25.50;99.90;;;;;;5018696;28;20410;-73
2021/06/15 10:12:04;;;;;;;8.57;5.25;;;25.80;99.90;;;;;;5033937;28;20029;-74
2021/06/15 10:14:30;;;;;;;6.82;4.47;;;26.00;99.90;;;;;;5041256;28;20549;-73
2021/06/15 10:16:57;;;;;;;5.45;4.82;;;26.10;99.90;;;;;;5044776;28;20029;-73
2021/06/15 10:19:23;;;;;;;6.72;4.57;;;25.90;99.90;;;;;;5041027;28;20021;-73
2021/06/15 10:21:49;;;;;;;7.03;4.32;;;25.90;99.90;;;;;;5016820;28;20029;-73
2021/06/15 10:24:18;;;;;;;6.07;4.55;;;26.20;99.90;;;;;;5031277;28;20140;-73
2021/06/15 10:26:44;;;;;;;7.53;4.95;;;26.10;99.90;;;;;;5031412;28;20360;-73
2021/06/15 10:29:11;;;;;;;6.78;4.43;;;26.00;99.90;;;;;;5031045;28;20104;-74
2021/06/15 10:31:39;;;;;;;7.28;4.30;;;26.30;99.90;;;;;;5044618;28;20033;-73
2021/06/15 10:34:04;;;;;;;4.95;4.00;;;26.30;99.90;;;;;;5041843;28;20022;-73
2021/06/15 10:36:39;;;;;;;5.05;3.88;;;26.30;99.90;;;;;;5047257;28;20083;-73
2021/06/15 10:39:16;;;;;;;5.38;3.45;;;26.50;99.90;;;;;;5022564;28;20025;-73
2021/06/15 10:41:42;;;;;;;4.68;3.78;;;26.90;99.90;;;;;;5023227;28;20051;-74
2021/06/15 10:44:09;;;;;;;5.53;4.45;;;27.10;99.90;;;;;;5035581;28;20045;-73
2021/06/15 10:46:41;;;;;;;6.40;4.10;;;27.20;99.90;;;;;;5034848;28;20502;-74
2021/06/15 10:49:11;;;;;;;7.30;3.72;;;27.10;99.90;;;;;;5023164;28;20111;-73
2021/06/15 10:51:52;;;;;;;7.80;4.38;;;26.60;99.90;;;;;;5046254;28;20032;-73
2021/06/15 10:54:38;;;;;;;7.32;3.90;;;26.50;99.90;;;;;;5020438;28;20098;-73
2021/06/15 10:57:16;;;;;;;5.25;4.00;;;26.60;99.90;;;;;;5041424;28;20053;-73
2021/06/15 11:00:03;;;;;;;6.28;3.67;;;27.00;99.90;;;;;;5022510;28;20045;-73
2021/06/15 11:02:31;;;;;;;6.80;3.78;;;27.10;99.90;;;;;;5034488;28;20368;-73
2021/06/15 11:04:58;;;;;;;5.07;3.90;;;27.50;99.90;;;;;;5034384;28;20032;-73
2021/06/15 11:07:26;;;;;;;5.47;3.55;;;27.50;99.90;;;;;;5039508;28;20372;-73
2021/06/15 11:09:52;;;;;;;4.15;3.53;;;27.30;99.90;;;;;;5042519;28;20083;-73
2021/06/15 11:12:19;;;;;;;4.13;3.17;;;27.60;99.90;;;;;;5034486;28;20119;-73
2021/06/15 11:15:14;;;;;;;6.28;3.60;;;27.40;99.90;;;;;;5042266;28;20038;-73
2021/06/15 11:17:45;;;;;;;4.53;3.70;;;27.70;99.90;;;;;;5031744;28;20021;-73
2021/06/15 11:20:11;;;;;;;6.53;3.70;;;27.80;99.90;;;;;;5027633;28;20045;-73
2021/06/15 11:22:37;;;;;;;4.68;4.10;;;27.80;99.90;;;;;;5038199;28;20025;-73
2021/06/15 11:25:03;;;;;;;6.32;3.80;;;27.50;99.90;;;;;;5035964;28;20034;-73
2021/06/15 11:27:29;;;;;;;6.38;4.13;;;27.60;99.90;;;;;;5044499;28;20415;-73
2021/06/15 11:29:56;;;;;;;7.05;4.25;;;27.80;99.90;;;;;;5029121;28;20091;-73
2021/06/15 11:32:28;;;;;;;4.20;3.75;;;28.00;99.90;;;;;;5033856;28;20033;-73
2021/06/15 11:35:01;;;;;;;5.97;4.35;;;27.60;99.90;;;;;;5033800;28;20464;-73
2021/06/15 11:37:38;;;;;;;4.95;3.72;;;27.20;99.90;;;;;;5024651;28;20033;-73
2021/06/15 11:40:33;;;;;;;6.30;3.83;;;27.50;99.90;;;;;;5046326;28;20025;-73
2021/06/15 11:43:08;;;;;;;5.05;3.83;;;28.40;99.30;;;;;;5051541;28;20118;-73
2021/06/15 11:45:43;;;;;;;5.47;3.80;;;28.50;99.70;;;;;;5035785;28;20029;-73
2021/06/15 11:48:34;;;;;;;5.35;3.72;;;28.70;99.60;;;;;;5027453;28;20503;-73
2021/06/15 11:51:05;;;;;;;5.90;3.80;;;28.70;98.40;;;;;;5038956;28;20040;-73
2021/06/15 11:53:36;;;;;;;4.70;3.65;;;28.90;99.40;;;;;;5042860;28;20018;-73
2021/06/15 11:56:07;;;;;;;5.45;3.72;;;28.60;98.00;;;;;;5033672;28;20025;-73
2021/06/15 11:58:35;;;;;;;6.00;3.80;;;28.20;99.30;;;;;;5022793;28;20116;-73
2021/06/15 12:01:04;;;;;;;5.35;4.15;;;28.00;98.90;;;;;;5031717;28;20143;-74
2021/06/15 12:03:42;;;;;;;3.88;3.38;;;28.20;99.50;;;;;;5022177;28;20364;-73
2021/06/15 12:06:10;;;;;;;8.00;3.65;;;28.10;99.70;;;;;;5041250;28;20029;-73
2021/06/15 12:08:41;;;;;;;6.13;4.03;;;28.30;99.20;;;;;;5038294;28;20025;-73
2021/06/15 12:11:10;;;;;;;5.18;3.63;;;28.30;97.70;;;;;;5033135;28;20057;-73
2021/06/15 12:13:38;;;;;;;5.88;3.45;;;27.90;97.30;;;;;;5021933;28;20076;-73
2021/06/15 12:16:16;;;;;;;5.68;3.45;;;27.90;97.10;;;;;;5043319;28;20100;-73
2021/06/15 12:18:49;;;;;;;4.57;3.83;;;27.90;96.30;;;;;;5033063;28;20750;-73
2021/06/15 12:21:19;;;;;;;5.25;3.75;;;28.00;95.90;;;;;;5032982;28;20217;-73
2021/06/15 12:24:06;;;;;;;10.27;8.07;;;28.40;95.40;;;;;;5009014;28;20116;-73
2021/06/15 12:26:33;;;;;;;3.85;3.50;;;28.60;97.60;;;;;;5039630;28;20479;-73
2021/06/15 12:29:05;;;;;;;5.07;3.20;;;28.80;95.60;;;;;;5043031;28;20379;-73
2021/06/15 12:31:39;;;;;;;3.90;3.60;;;28.90;95.10;;;;;;5050178;28;20091;-73
2021/06/15 12:34:10;;;;;;;6.68;4.13;;;29.40;94.10;;;;;;5041388;28;20384;-73
2021/06/15 12:36:37;;;;;;;6.25;3.85;;;29.10;93.70;;;;;;5038085;28;20036;-73
2021/06/15 12:39:18;;;;;;;4.18;3.13;;;29.10;93.90;;;;;;5040353;28;20533;-73
2021/06/15 12:41:52;;;;;;;5.22;3.35;;;29.30;92.80;;;;;;5013048;28;20033;-73
2021/06/15 12:44:23;;;;;;;4.18;3.63;;;29.50;94.40;;;;;;5043136;28;20171;-73
2021/06/15 12:47:00;;;;;;;3.60;3.28;;;28.60;94.20;;;;;;5043543;28;20113;-73
2021/06/15 12:49:25;;;;;;;3.67;3.38;;;29.00;94.10;;;;;;5032327;28;20040;-73
2021/06/15 12:51:53;;;;;;;5.18;3.63;;;29.50;92.20;;;;;;5032405;28;20051;-74
2021/06/15 12:54:28;;;;;;;5.05;3.20;;;29.80;93.20;;;;;;5036189;28;20379;-73
2021/06/15 12:57:17;;;;;;;4.93;3.58;;;30.00;90.70;;;;;;5034508;28;20021;-73
2021/06/15 13:00:02;;;;;;;4.57;3.20;;;29.90;92.30;;;;;;5029200;28;20070;-73